Canadian Empress — VX6095 — position and weather

sailwx.info

Track history (hours):
 
Tides and Currents Weather Stations Pressure Air Temp Water Temp Dewpoint Dewpoint Depression Visibility Wind Speed Wind Dir Waves Ship Positions

Canadian Empress

Last reported at 2017-Sep-19 22:12 UTC. Time now 2017-Sep-19 22:28 UTC.
Position N 45°15' W 073°59'.

Length 32 m.

Type: Passenger vessel. MMSI: 314954012.

Date/timePositionNaut miles runAvg speedWind from/ knotsBaromVisibWave heightAir tempDewpointWater temp
2017-Sep-19 22:12N 45°15' W 073°59'2 7.9
2017-Sep-19 22:00N 45°14' W 074°01'  
2017-Sep-13 14:51N 45°14' W 074°01'6 8.5
2017-Sep-13 14:11N 45°18' W 073°56'0 0.8
2017-Sep-13 14:00N 45°18' W 073°56'1 1.7
2017-Sep-13 13:30N 45°19' W 073°55'1 1.8
2017-Sep-13 13:00N 45°20' W 073°55'2 3.1
2017-Sep-13 12:30N 45°21' W 073°53'3 6.8
2017-Sep-13 12:00N 45°23' W 073°49'4 8.6
2017-Sep-13 11:30N 45°25' W 073°44'2 3.8
2017-Sep-13 11:00N 45°26' W 073°42'0 0.0
2017-Sep-13 10:30N 45°26' W 073°42'0 0.0
2017-Sep-13 10:01N 45°26' W 073°42'0 0.0
2017-Sep-13 09:31N 45°26' W 073°42'0 0.0
2017-Sep-13 09:01N 45°26' W 073°42'0 0.0
2017-Sep-13 08:31N 45°26' W 073°42'0 0.0
2017-Sep-13 08:00N 45°26' W 073°42'0 0.0
2017-Sep-13 07:31N 45°26' W 073°42'0 0.0
2017-Sep-13 07:00N 45°26' W 073°42'0 0.0
2017-Sep-13 06:31N 45°26' W 073°42'0 0.0
2017-Sep-13 06:01N 45°26' W 073°42'0 0.0
2017-Sep-13 05:30N 45°26' W 073°42'0 0.0
2017-Sep-13 05:01N 45°26' W 073°42'0 0.0
2017-Sep-13 04:31N 45°26' W 073°42'0 0.0
2017-Sep-13 04:00N 45°26' W 073°42'0 0.0
2017-Sep-13 03:30N 45°26' W 073°42'3 6.0
2017-Sep-13 03:00N 45°24' W 073°45'3 6.6
2017-Sep-13 02:31N 45°25' W 073°41'4 5.6
2017-Sep-13 01:50N 45°24' W 073°35'  
Track history (hours):
 
Tides and Currents Weather Stations Pressure Air Temp Water Temp Dewpoint Dewpoint Depression Visibility Wind Speed Wind Dir Waves Ship Positions

Canadian Empress

Last reported at 2017-Sep-19 22:12 UTC. Time now 2017-Sep-19 22:28 UTC.
Position N 45°15' W 073°59'.

Length 32 m.

Type: Passenger vessel. MMSI: 314954012.

Date/timePositionNaut miles runAvg speedWind from/ knotsBaromVisibWave heightAir tempDewpointWater temp
2017-Sep-19 22:12N 45°15' W 073°59'2 7.9
2017-Sep-19 22:00N 45°14' W 074°01'  
2017-Sep-13 14:51N 45°14' W 074°01'6 8.5
2017-Sep-13 14:11N 45°18' W 073°56'0 0.8
2017-Sep-13 14:00N 45°18' W 073°56'1 1.7
2017-Sep-13 13:30N 45°19' W 073°55'1 1.8
2017-Sep-13 13:00N 45°20' W 073°55'2 3.1
2017-Sep-13 12:30N 45°21' W 073°53'3 6.8
2017-Sep-13 12:00N 45°23' W 073°49'4 8.6
2017-Sep-13 11:30N 45°25' W 073°44'2 3.8
2017-Sep-13 11:00N 45°26' W 073°42'0 0.0
2017-Sep-13 10:30N 45°26' W 073°42'0 0.0
2017-Sep-13 10:01N 45°26' W 073°42'0 0.0
2017-Sep-13 09:31N 45°26' W 073°42'0 0.0
2017-Sep-13 09:01N 45°26' W 073°42'0 0.0
2017-Sep-13 08:31N 45°26' W 073°42'0 0.0
2017-Sep-13 08:00N 45°26' W 073°42'0 0.0
2017-Sep-13 07:31N 45°26' W 073°42'0 0.0
2017-Sep-13 07:00N 45°26' W 073°42'0 0.0
2017-Sep-13 06:31N 45°26' W 073°42'0 0.0
2017-Sep-13 06:01N 45°26' W 073°42'0 0.0
2017-Sep-13 05:30N 45°26' W 073°42'0 0.0
2017-Sep-13 05:01N 45°26' W 073°42'0 0.0
2017-Sep-13 04:31N 45°26' W 073°42'0 0.0
2017-Sep-13 04:00N 45°26' W 073°42'0 0.0
2017-Sep-13 03:30N 45°26' W 073°42'3 6.0
2017-Sep-13 03:00N 45°24' W 073°45'3 6.6
2017-Sep-13 02:31N 45°25' W 073°41'4 5.6
2017-Sep-13 01:50N 45°24' W 073°35'  

Dump ship's entire track history